Meiringen Airport

Airport
ICAO code: 
LSMM
Summary
ICAO Region: 
EUR
Territory: 
Location: 
Unterbach, Bern
Serving: 
Meiringen
Elevation: 
1895 ft
Coordinates: 
Aerial View: 
46° 44' 35.999" N, 8° 6' 36" E
Metar
Observation
LSMM 171720Z AUTO 09009KT 050V140 9999NDV NCD M01/M01 Q1035 RMK
Station
MEIRINGEN
Date/Time
2022-01-17 17:20:00
Wind direction
90°
Wind speed
09 kts
Lowest cloud amount
n/a
Temperature
-1°C
Dew point
-1°C
Humidity
100%
QNH
1035 hPa
Weather condition
n/a

Meiringen air base, also known as the Unterbach military airfield, is a Swiss military airbase located near the hamlet of Unterbach and the town of Meiringen, in the canton of Bern, Switzerland.

Climatology

Humid continental climate (Köppen climate classification Dfb)

Runways

Designator Length Width Surface Rops
10/28 2003 40 ASP No/No
Airport map: 
Aerial View: 

SKYbrary Partners:

Safety knowledge contributed by: